Airfield :
LOGIN :

Register | Disclaimer

   EN    FR    IT 

 










Legend :    VFR   Marginal VFR   IFR   Intensive IFR   Very Intensive IFR
Visi :
Ceiling :
>= 8 km
>= 3000ft
5 to 8 km
1000 to 3000 ft
1500m to 5 km
500 to 1000 ft
800 to 1500m
200 to 500 ft
< 800m
< 200 ft
Symbols :   Thunderstorms  Fog  Heavy snow  Heavy precipitations  Wind > 20 kt
SIGMETs :     Misc.  Thunderstorms  Icing  Turbulence  Mountain Waves  Volcanic Ashes






- Airport Elevation : 461 ft
- IATA code : WIE


ETOU - Wiesbaden Army

CURRENT METAR :
  • 290955Z 16003KT 9999 SCT007 BKN010 09/09 A2962 RMK AO2A SLP035 T00910089 $

EXPIRED METARs :
  • 290930Z AUTO 00000KT 9999 BKN005 OVC090 08/08 A2962 RMK AO2 BKN V OVC SLP035 $
  • 290910Z AUTO 00000KT 9999 BKN004 OVC090 08/08 A2962 RMK AO2 BKN V OVC SLP035 $
  • 290855Z 18003KT 9999 SCT004 BKN009 08/08 A2962 RMK AO2A SLP036 T00810080 52012
  • 290755Z 00000KT 9999 BKN009 07/07 A2960 RMK AO2A SLP028 T00710070 $
  • 290740Z AUTO 00000KT 9999 BKN006 BKN190 OVC220 07/07 A2960 RMK AO2 CIG 006V190 SLP028 $
  • 290655Z AUTO 00000KT 9999 SCT210 06/06 A2959 RMK AO2 SLP025 T00620061

TAF AMD TAF ETOU
Valid from the 29 at 08:00 until the 30 at 10:00 UTC


290821Z 2908/3010 VRB06KT 6000 BR FEW009 BKN010 QNH2960INS
BECMG 2910/2911 VRB06KT 9999 SCT030 QNH2959INS
BECMG 2923/2924 VRB06KT 9999 SCT035 QNH2972INS TX13/2913Z TN06/3004Z



MET'MAP, your aeronautical weather chart ! - Copyright ORBIFLY December 2007 - Disclaimer

ORBIFLY MET'MAP TEAM :

Programming & Development : Alexandra Zaïnal
Original concept : Baudouin d'Aumeries
Technical & hardware support : Manuel Goepfert
Assistance : Marc-Olivier Méhu




SOURCES & CREDITS :

   NOAA